Time;durP1;ratioP1;P1;durP2;ratioP2;P2;SDS_P1;SDS_P2;PMS_P1;PMS_P2;Temp;Humidity;BMP_temperature;BMP_pressure;BME280_temperature;BME280_humidity;BME280_pressure;Samples;Min_cycle;Max_cycle;Signal;HPM_P1;HPM_P2
2023/03/23 00:01:12;;;;;;;11.48;10.73;;;;;;;;;;4192890;28;20047;-57
2023/03/23 00:03:32;;;;;;;12.30;11.48;;;;;;;;;;4191676;28;20040;-57
2023/03/23 00:05:52;;;;;;;11.05;10.23;;;;;;;;;;4194225;28;20140;-58
2023/03/23 00:08:12;;;;;;;12.15;11.35;;;;;;;;;;4193079;28;20078;-57
2023/03/23 00:10:32;;;;;;;12.52;11.65;;;;;;;;;;4192057;28;20248;-57
2023/03/23 00:12:52;;;;;;;13.13;11.73;;;;;;;;;;4192274;28;20048;-57
2023/03/23 00:15:12;;;;;;;13.95;12.73;;;;;;;;;;4194373;28;20394;-57
2023/03/23 00:17:33;;;;;;;14.30;13.15;;;;;;;;;;4189629;28;20063;-57
2023/03/23 00:19:52;;;;;;;11.23;10.65;;;;;;;;;;4191491;28;20271;-57
2023/03/23 00:22:13;;;;;;;13.07;12.18;;;;;;;;;;4192656;28;20048;-57
2023/03/23 00:24:33;;;;;;;13.13;12.13;;;;;;;;;;4194405;28;20087;-57
2023/03/23 00:26:53;;;;;;;11.82;10.90;;;;;;;;;;4189385;28;20350;-57
2023/03/23 00:29:15;;;;;;;10.50;9.82;;;;;;;;;;4191563;28;20264;-57
2023/03/23 00:31:35;;;;;;;10.45;9.88;;;;;;;;;;4193369;28;20079;-57
2023/03/23 00:33:55;;;;;;;11.15;10.50;;;;;;;;;;4188347;28;20059;-57
2023/03/23 00:36:14;;;;;;;11.43;10.68;;;;;;;;;;4190889;28;20400;-58
2023/03/23 00:38:36;;;;;;;11.07;10.57;;;;;;;;;;4192437;28;20271;-57
2023/03/23 00:40:57;;;;;;;12.68;11.63;;;;;;;;;;4192087;28;20397;-57
2023/03/23 00:43:17;;;;;;;13.23;12.23;;;;;;;;;;4199032;28;20048;-57
2023/03/23 00:45:37;;;;;;;16.23;14.63;;;;;;;;;;4188792;28;20116;-57
2023/03/23 00:48:01;;;;;;;14.88;13.57;;;;;;;;;;4190573;28;20240;-57
2023/03/23 00:50:21;;;;;;;13.98;12.90;;;;;;;;;;4188951;28;20083;-57
2023/03/23 00:52:41;;;;;;;13.32;12.43;;;;;;;;;;4190627;28;20064;-57
2023/03/23 00:55:00;;;;;;;33.67;22.38;;;;;;;;;;4187988;28;20090;-57
2023/03/23 00:57:23;;;;;;;27.52;18.75;;;;;;;;;;4190834;28;20091;-57
2023/03/23 00:59:43;;;;;;;;;;;;;;;;;;4191207;28;20043;-57
2023/03/23 01:02:03;;;;;;;71.65;40.88;;;;;;;;;;4188360;28;19963;-57
2023/03/23 01:04:23;;;;;;;26.67;19.90;;;;;;;;;;4191138;28;20139;-57
2023/03/23 01:06:44;;;;;;;17.70;15.80;;;;;;;;;;4191613;28;20047;-57
2023/03/23 01:09:04;;;;;;;18.65;14.80;;;;;;;;;;4191597;28;20090;-57
2023/03/23 01:11:24;;;;;;;19.65;14.82;;;;;;;;;;4189595;28;20051;-57
2023/03/23 01:13:44;;;;;;;18.63;16.13;;;;;;;;;;4191732;28;20071;-57
2023/03/23 01:16:04;;;;;;;21.63;18.00;;;;;;;;;;4191706;28;20048;-57
2023/03/23 01:18:24;;;;;;;19.70;17.65;;;;;;;;;;4190610;28;20043;-57
2023/03/23 01:20:44;;;;;;;18.23;16.40;;;;;;;;;;4190301;28;20401;-57
2023/03/23 01:23:04;;;;;;;15.98;14.32;;;;;;;;;;4191892;28;20291;-57
2023/03/23 01:25:24;;;;;;;15.50;14.07;;;;;;;;;;4193397;28;20044;-57
2023/03/23 01:27:44;;;;;;;14.45;13.25;;;;;;;;;;4190887;28;20055;-57
2023/03/23 01:30:05;;;;;;;13.85;12.77;;;;;;;;;;4190757;28;20083;-57
2023/03/23 01:32:25;;;;;;;15.30;13.90;;;;;;;;;;4193483;28;20371;-57
2023/03/23 01:34:45;;;;;;;18.35;16.48;;;;;;;;;;4190618;28;20098;-57
2023/03/23 01:37:04;;;;;;;25.13;19.13;;;;;;;;;;4191490;28;20216;-57
2023/03/23 01:39:24;;;;;;;25.88;19.02;;;;;;;;;;4190989;28;20113;-58
2023/03/23 01:41:43;;;;;;;19.35;15.45;;;;;;;;;;4189944;28;20339;-57
2023/03/23 01:44:18;;;;;;;14.95;13.70;;;;;;;;;;4192648;28;20082;-57
2023/03/23 01:46:38;;;;;;;14.55;13.25;;;;;;;;;;4190544;28;20094;-57
2023/03/23 01:48:59;;;;;;;14.77;13.40;;;;;;;;;;4188728;28;20163;-57
2023/03/23 01:51:20;;;;;;;14.45;13.20;;;;;;;;;;4191918;28;20056;-57
2023/03/23 01:53:45;;;;;;;10.90;10.20;;;;;;;;;;4193284;28;20232;-57
2023/03/23 01:56:07;;;;;;;11.02;10.27;;;;;;;;;;4188165;28;20147;-57
2023/03/23 01:58:29;;;;;;;14.13;13.05;;;;;;;;;;4190185;28;20051;-57
2023/03/23 02:00:49;;;;;;;15.32;13.90;;;;;;;;;;4193909;28;20043;-56
2023/03/23 02:03:11;;;;;;;14.02;12.68;;;;;;;;;;4203065;22;20071;-58
2023/03/23 02:05:35;;;;;;;12.13;11.17;;;;;;;;;;4190777;28;20052;-58
2023/03/23 02:07:55;;;;;;;10.57;10.02;;;;;;;;;;4187041;28;20044;-58
2023/03/23 02:10:14;;;;;;;10.07;9.48;;;;;;;;;;4189036;28;20231;-58
2023/03/23 02:12:34;;;;;;;9.75;9.07;;;;;;;;;;4188366;28;20075;-57
2023/03/23 02:14:54;;;;;;;11.95;11.13;;;;;;;;;;4186328;28;20094;-58
2023/03/23 02:17:23;;;;;;;11.70;11.10;;;;;;;;;;4188204;28;20140;-58
2023/03/23 02:19:49;;;;;;;12.02;11.20;;;;;;;;;;4188148;28;20056;-58
2023/03/23 02:22:09;;;;;;;9.70;9.10;;;;;;;;;;4189037;28;20036;-58
2023/03/23 02:24:38;;;;;;;10.32;9.82;;;;;;;;;;4188826;28;20055;-58
2023/03/23 02:27:01;;;;;;;9.38;8.95;;;;;;;;;;4187193;28;20087;-58
2023/03/23 02:29:24;;;;;;;10.18;9.68;;;;;;;;;;4193426;28;20048;-58
2023/03/23 02:31:44;;;;;;;;;;;;;;;;;;4188545;28;20078;-58
2023/03/23 02:34:10;;;;;;;11.63;10.80;;;;;;;;;;4188948;28;19931;-58
2023/03/23 02:36:29;;;;;;;11.35;10.48;;;;;;;;;;4188414;28;20083;-58
2023/03/23 02:38:52;;;;;;;11.70;10.93;;;;;;;;;;4187387;28;20044;-58
2023/03/23 02:41:13;;;;;;;11.65;10.98;;;;;;;;;;4188362;28;20078;-58
2023/03/23 02:43:41;;;;;;;11.75;10.85;;;;;;;;;;4188870;28;20446;-58
2023/03/23 02:46:02;;;;;;;12.00;11.15;;;;;;;;;;4186882;28;20351;-58
2023/03/23 02:48:24;;;;;;;12.50;11.95;;;;;;;;;;4188339;28;20102;-58
2023/03/23 02:50:46;;;;;;;10.57;9.90;;;;;;;;;;4188632;28;20462;-58
2023/03/23 02:53:08;;;;;;;12.02;11.27;;;;;;;;;;4188714;28;20554;-58
2023/03/23 02:55:29;;;;;;;11.43;10.88;;;;;;;;;;4187371;28;20052;-58
2023/03/23 02:57:50;;;;;;;9.70;9.23;;;;;;;;;;4190028;28;20048;-58
2023/03/23 03:00:14;;;;;;;10.88;10.32;;;;;;;;;;4188553;28;20091;-58
2023/03/23 03:02:40;;;;;;;12.35;11.57;;;;;;;;;;4190936;28;20040;-58
2023/03/23 03:05:05;;;;;;;11.73;10.95;;;;;;;;;;4190660;28;20058;-58
2023/03/23 03:07:28;;;;;;;12.65;11.77;;;;;;;;;;4195861;28;20055;-58
2023/03/23 03:09:50;;;;;;;11.55;10.85;;;;;;;;;;4195559;28;20055;-58
2023/03/23 03:12:26;;;;;;;11.93;11.20;;;;;;;;;;4195661;28;20059;-58
2023/03/23 03:14:52;;;;;;;12.27;11.27;;;;;;;;;;4194594;28;20079;-58
2023/03/23 03:17:20;;;;;;;11.60;11.05;;;;;;;;;;4193627;28;20140;-58
2023/03/23 03:19:45;;;;;;;12.55;11.50;;;;;;;;;;4192881;28;20074;-58
2023/03/23 03:22:07;;;;;;;11.15;10.38;;;;;;;;;;4192775;28;20113;-58
2023/03/23 03:24:29;;;;;;;11.57;10.98;;;;;;;;;;4191030;28;20290;-58
2023/03/23 03:26:50;;;;;;;11.45;10.70;;;;;;;;;;4190309;28;20056;-58
2023/03/23 03:29:10;;;;;;;11.65;10.93;;;;;;;;;;4192016;28;20142;-58
2023/03/23 03:31:32;;;;;;;9.25;8.90;;;;;;;;;;4191702;28;20156;-58
2023/03/23 03:33:52;;;;;;;10.63;10.13;;;;;;;;;;4191122;28;20296;-58
2023/03/23 03:36:22;;;;;;;10.43;9.82;;;;;;;;;;4190659;28;20116;-58
2023/03/23 03:38:42;;;;;;;12.52;11.70;;;;;;;;;;4189680;28;20267;-58
2023/03/23 03:41:02;;;;;;;15.50;14.35;;;;;;;;;;4188482;28;20093;-58
2023/03/23 03:43:22;;;;;;;10.77;10.10;;;;;;;;;;4196237;28;20146;-58
2023/03/23 03:45:41;;;;;;;10.80;10.00;;;;;;;;;;4196080;28;20239;-58
2023/03/23 03:48:02;;;;;;;11.07;10.38;;;;;;;;;;4190692;28;20083;-58
2023/03/23 03:50:23;;;;;;;11.38;10.88;;;;;;;;;;4189744;28;20079;-58
2023/03/23 03:52:43;;;;;;;10.88;10.38;;;;;;;;;;4188465;28;20126;-58
2023/03/23 03:55:03;;;;;;;11.50;10.75;;;;;;;;;;4190487;28;20052;-58
2023/03/23 03:57:23;;;;;;;9.55;9.18;;;;;;;;;;4190075;28;20059;-58
2023/03/23 03:59:43;;;;;;;11.57;10.98;;;;;;;;;;4190589;28;20047;-58
2023/03/23 04:02:03;;;;;;;10.10;9.57;;;;;;;;;;4193989;28;20094;-58
2023/03/23 04:04:23;;;;;;;11.73;10.73;;;;;;;;;;4189887;28;20198;-58
2023/03/23 04:06:43;;;;;;;10.50;10.13;;;;;;;;;;4189785;28;20043;-57
2023/03/23 04:09:05;;;;;;;12.70;11.52;;;;;;;;;;4193049;28;20078;-58
2023/03/23 04:11:26;;;;;;;11.30;10.70;;;;;;;;;;4190662;28;20366;-57
2023/03/23 04:13:45;;;;;;;12.25;11.55;;;;;;;;;;4190443;28;20048;-57
2023/03/23 04:16:05;;;;;;;11.38;10.90;;;;;;;;;;4190566;28;20389;-58
2023/03/23 04:18:25;;;;;;;11.50;10.63;;;;;;;;;;4190550;28;20052;-57
2023/03/23 04:20:47;;;;;;;11.35;10.43;;;;;;;;;;4177687;28;20418;-58
2023/03/23 04:23:06;;;;;;;12.02;11.35;;;;;;;;;;4191423;28;20074;-57
2023/03/23 04:25:27;;;;;;;11.15;10.48;;;;;;;;;;4190709;28;20087;-57
2023/03/23 04:27:52;;;;;;;13.70;12.77;;;;;;;;;;4191105;28;20112;-57
2023/03/23 04:30:13;;;;;;;12.20;11.38;;;;;;;;;;4190552;28;20083;-58
2023/03/23 04:32:32;;;;;;;13.02;12.25;;;;;;;;;;4202844;28;20052;-57
2023/03/23 04:34:52;;;;;;;12.02;11.43;;;;;;;;;;4195682;28;20115;-58
2023/03/23 04:37:13;;;;;;;12.23;11.57;;;;;;;;;;4190459;28;20367;-58
2023/03/23 04:39:33;;;;;;;11.77;11.18;;;;;;;;;;4189121;28;20112;-57
2023/03/23 04:41:53;;;;;;;13.23;12.27;;;;;;;;;;4188973;28;20067;-58
2023/03/23 04:44:17;;;;;;;11.77;11.07;;;;;;;;;;4194982;28;20067;-58
2023/03/23 04:46:37;;;;;;;11.43;10.93;;;;;;;;;;4202665;28;20047;-58
2023/03/23 04:48:58;;;;;;;11.02;10.18;;;;;;;;;;4189963;28;20060;-57
2023/03/23 04:51:18;;;;;;;12.15;11.30;;;;;;;;;;4190358;28;20079;-57
2023/03/23 04:53:38;;;;;;;11.95;11.27;;;;;;;;;;4190011;28;20083;-58
2023/03/23 04:55:58;;;;;;;10.63;10.13;;;;;;;;;;4190030;28;20157;-57
2023/03/23 04:58:17;;;;;;;10.77;10.27;;;;;;;;;;4189876;28;20048;-57
2023/03/23 05:00:37;;;;;;;11.73;11.05;;;;;;;;;;4189575;28;20414;-57
2023/03/23 05:02:57;;;;;;;10.63;10.00;;;;;;;;;;4188304;28;20417;-57
2023/03/23 05:05:17;;;;;;;9.32;8.85;;;;;;;;;;4190006;28;20086;-58
2023/03/23 05:07:37;;;;;;;9.85;9.55;;;;;;;;;;4189129;28;20055;-58
2023/03/23 05:09:57;;;;;;;13.48;12.55;;;;;;;;;;4188997;28;20101;-58
2023/03/23 05:12:17;;;;;;;12.43;11.73;;;;;;;;;;4188991;28;20078;-58
2023/03/23 05:14:40;;;;;;;11.23;10.73;;;;;;;;;;4188401;28;20056;-58
2023/03/23 05:17:00;;;;;;;12.88;12.15;;;;;;;;;;4188045;28;20079;-58
2023/03/23 05:19:20;;;;;;;11.60;10.82;;;;;;;;;;4188775;28;20112;-58
2023/03/23 05:21:41;;;;;;;10.90;10.43;;;;;;;;;;4187896;28;20079;-58
2023/03/23 05:24:01;;;;;;;11.82;10.80;;;;;;;;;;4188738;28;20075;-58
2023/03/23 05:26:23;;;;;;;11.50;10.90;;;;;;;;;;4189668;28;20047;-58
2023/03/23 05:28:43;;;;;;;10.85;10.27;;;;;;;;;;4189661;28;20399;-57
2023/03/23 05:31:03;;;;;;;10.18;9.68;;;;;;;;;;4182011;28;20092;-58
2023/03/23 05:33:22;;;;;;;10.32;9.70;;;;;;;;;;4189554;28;20051;-58
2023/03/23 05:35:42;;;;;;;10.85;10.35;;;;;;;;;;4188495;28;20047;-58
2023/03/23 05:38:03;;;;;;;11.25;10.75;;;;;;;;;;4193512;28;20063;-57
2023/03/23 05:40:25;;;;;;;9.23;9.02;;;;;;;;;;4194757;28;20362;-58
2023/03/23 05:42:45;;;;;;;10.80;10.50;;;;;;;;;;4187436;28;20090;-58
2023/03/23 05:45:06;;;;;;;10.77;10.48;;;;;;;;;;4187513;28;20040;-57
2023/03/23 05:47:26;;;;;;;12.05;10.98;;;;;;;;;;4187272;28;20040;-58
2023/03/23 05:49:46;;;;;;;10.23;9.88;;;;;;;;;;4188432;28;20075;-58
2023/03/23 05:52:07;;;;;;;10.48;9.85;;;;;;;;;;4188589;28;20117;-58
2023/03/23 05:54:27;;;;;;;10.50;10.10;;;;;;;;;;4188346;28;20378;-58
2023/03/23 05:56:48;;;;;;;10.63;10.23;;;;;;;;;;4192576;28;20047;-58
2023/03/23 05:59:10;;;;;;;10.00;9.63;;;;;;;;;;4189307;28;20060;-58
2023/03/23 06:01:31;;;;;;;9.73;9.32;;;;;;;;;;4188337;28;20052;-58
2023/03/23 06:03:53;;;;;;;10.50;10.13;;;;;;;;;;4189085;28;20097;-58
2023/03/23 06:06:13;;;;;;;8.83;8.63;;;;;;;;;;4189297;28;20079;-57
2023/03/23 06:08:33;;;;;;;9.18;8.98;;;;;;;;;;4188331;28;20274;-58
2023/03/23 06:10:53;;;;;;;10.48;9.93;;;;;;;;;;4185155;28;20048;-58
2023/03/23 06:13:14;;;;;;;9.75;9.55;;;;;;;;;;4188920;28;20048;-58
2023/03/23 06:15:34;;;;;;;8.70;8.48;;;;;;;;;;4188041;28;20083;-57
2023/03/23 06:17:56;;;;;;;8.20;7.72;;;;;;;;;;4189130;28;20060;-58
2023/03/23 06:20:16;;;;;;;9.20;8.85;;;;;;;;;;4188875;28;20311;-56
2023/03/23 06:22:37;;;;;;;8.80;8.40;;;;;;;;;;4187336;28;20044;-56
2023/03/23 06:24:57;;;;;;;8.23;7.93;;;;;;;;;;4188823;28;20064;-56
2023/03/23 06:27:18;;;;;;;9.75;9.35;;;;;;;;;;4187809;28;20060;-56
2023/03/23 06:29:39;;;;;;;9.82;9.10;;;;;;;;;;4189121;28;20067;-56
2023/03/23 06:32:01;;;;;;;9.52;9.13;;;;;;;;;;4188079;28;20091;-56
2023/03/23 06:34:21;;;;;;;18.13;16.40;;;;;;;;;;4191562;28;20059;-56
2023/03/23 06:36:43;;;;;;;12.35;11.55;;;;;;;;;;4190837;28;20068;-56
2023/03/23 06:39:06;;;;;;;12.48;11.73;;;;;;;;;;4195704;28;20059;-56
2023/03/23 06:41:26;;;;;;;14.30;13.32;;;;;;;;;;4195490;28;20075;-56
2023/03/23 06:43:46;;;;;;;16.52;15.43;;;;;;;;;;4195708;28;20043;-56
2023/03/23 06:46:09;;;;;;;13.90;13.13;;;;;;;;;;4180986;28;20076;-56
2023/03/23 06:48:29;;;;;;;;;;;;;;;;;;4191217;28;20082;-56
2023/03/23 06:50:48;;;;;;;11.52;10.52;;;;;;;;;;4192328;28;19947;-56
2023/03/23 06:53:11;;;;;;;10.10;9.48;;;;;;;;;;4194451;28;20063;-56
2023/03/23 06:55:31;;;;;;;11.75;11.18;;;;;;;;;;4190206;28;20083;-56
2023/03/23 06:57:50;;;;;;;11.95;11.05;;;;;;;;;;4194185;28;20075;-56
2023/03/23 07:00:15;;;;;;;10.57;9.85;;;;;;;;;;4193950;28;20067;-56
2023/03/23 07:02:35;;;;;;;11.95;10.95;;;;;;;;;;4193395;28;20052;-56
2023/03/23 07:04:55;;;;;;;10.90;10.38;;;;;;;;;;4192735;28;20043;-56
2023/03/23 07:07:18;;;;;;;11.68;10.55;;;;;;;;;;4190454;28;20370;-56
2023/03/23 07:09:38;;;;;;;11.90;10.95;;;;;;;;;;4191556;28;20044;-56
2023/03/23 07:11:57;;;;;;;12.27;11.57;;;;;;;;;;4176308;28;20045;-56
2023/03/23 07:14:17;;;;;;;9.43;8.75;;;;;;;;;;4191431;28;20080;-56
2023/03/23 07:16:37;;;;;;;12.45;11.55;;;;;;;;;;4191902;28;20370;-56
2023/03/23 07:18:57;;;;;;;10.63;9.82;;;;;;;;;;4191365;28;20094;-56
2023/03/23 07:21:16;;;;;;;12.68;11.30;;;;;;;;;;4190403;28;20064;-56
2023/03/23 07:23:36;;;;;;;24.42;22.27;;;;;;;;;;4196158;28;20060;-56
2023/03/23 07:25:56;;;;;;;9.85;9.35;;;;;;;;;;4189556;28;20067;-56
2023/03/23 07:28:16;;;;;;;8.25;7.57;;;;;;;;;;4191133;28;20079;-56
2023/03/23 07:30:36;;;;;;;8.93;8.50;;;;;;;;;;4189936;28;20044;-56
2023/03/23 07:32:56;;;;;;;8.20;7.18;;;;;;;;;;4190278;28;20052;-56
2023/03/23 07:35:16;;;;;;;6.50;6.30;;;;;;;;;;4191022;28;20244;-56
2023/03/23 07:37:36;;;;;;;6.45;6.35;;;;;;;;;;4195917;28;20052;-56
2023/03/23 07:39:56;;;;;;;5.25;4.97;;;;;;;;;;4194486;28;20239;-56
2023/03/23 07:42:16;;;;;;;5.82;5.72;;;;;;;;;;4189031;28;20043;-56
2023/03/23 07:44:36;;;;;;;5.47;5.38;;;;;;;;;;4190101;28;20090;-56
2023/03/23 07:46:56;;;;;;;7.18;6.82;;;;;;;;;;4191128;28;20358;-56
2023/03/23 07:49:17;;;;;;;8.13;7.55;;;;;;;;;;4189384;28;20326;-56
2023/03/23 07:51:39;;;;;;;8.45;8.05;;;;;;;;;;4190935;28;20072;-56
2023/03/23 07:53:59;;;;;;;8.32;7.68;;;;;;;;;;4193349;28;20055;-56
2023/03/23 07:56:19;;;;;;;9.40;8.90;;;;;;;;;;4193686;28;20378;-56
2023/03/23 07:58:40;;;;;;;9.48;8.77;;;;;;;;;;4193093;28;20056;-56
2023/03/23 08:01:00;;;;;;;8.10;7.50;;;;;;;;;;4189323;28;20099;-56
2023/03/23 08:03:20;;;;;;;7.63;7.18;;;;;;;;;;4189897;28;20159;-56
2023/03/23 08:05:41;;;;;;;5.30;5.20;;;;;;;;;;4190741;28;20048;-56
2023/03/23 08:08:01;;;;;;;6.80;6.22;;;;;;;;;;4189500;28;20114;-57
2023/03/23 08:10:24;;;;;;;6.47;6.18;;;;;;;;;;4189788;28;20402;-56
2023/03/23 08:12:46;;;;;;;6.25;6.03;;;;;;;;;;4190584;28;20094;-56
2023/03/23 08:15:06;;;;;;;7.05;6.75;;;;;;;;;;4190953;28;20095;-56
2023/03/23 08:17:26;;;;;;;5.32;5.22;;;;;;;;;;4189439;28;20105;-56
2023/03/23 08:19:46;;;;;;;5.00;4.80;;;;;;;;;;4190592;28;20107;-56
2023/03/23 08:22:05;;;;;;;3.90;3.80;;;;;;;;;;4189836;28;20367;-56
2023/03/23 08:24:26;;;;;;;4.07;3.85;;;;;;;;;;4190592;28;20036;-56
2023/03/23 08:26:46;;;;;;;3.28;3.17;;;;;;;;;;4187533;28;20095;-56
2023/03/23 08:29:05;;;;;;;3.53;3.17;;;;;;;;;;4190364;28;20128;-56
2023/03/23 08:31:27;;;;;;;2.05;2.05;;;;;;;;;;4190086;28;20079;-56
2023/03/23 08:33:47;;;;;;;4.88;3.80;;;;;;;;;;4181516;28;20048;-56
2023/03/23 08:36:07;;;;;;;5.03;4.78;;;;;;;;;;4188844;28;20117;-56
2023/03/23 08:38:28;;;;;;;4.38;4.05;;;;;;;;;;4194820;28;20059;-56
2023/03/23 08:40:49;;;;;;;5.18;4.93;;;;;;;;;;4193843;28;20043;-56
2023/03/23 08:43:09;;;;;;;6.20;5.82;;;;;;;;;;4189281;28;20104;-56
2023/03/23 08:45:30;;;;;;;5.47;5.07;;;;;;;;;;4188564;28;20052;-56
2023/03/23 08:47:51;;;;;;;5.32;5.13;;;;;;;;;;4183240;28;20052;-56
2023/03/23 08:50:13;;;;;;;4.05;3.90;;;;;;;;;;4189266;28;20072;-56
2023/03/23 08:52:33;;;;;;;4.97;4.78;;;;;;;;;;4188166;28;20064;-56
2023/03/23 08:54:53;;;;;;;6.25;5.95;;;;;;;;;;4191791;28;20237;-56
2023/03/23 08:57:15;;;;;;;4.00;3.78;;;;;;;;;;4188967;28;20052;-56
2023/03/23 08:59:35;;;;;;;5.35;4.93;;;;;;;;;;4189406;28;20239;-57
2023/03/23 09:01:55;;;;;;;5.07;4.78;;;;;;;;;;4190040;28;20102;-57
2023/03/23 09:04:15;;;;;;;3.45;3.25;;;;;;;;;;4189049;28;20244;-56
2023/03/23 09:06:36;;;;;;;4.82;4.60;;;;;;;;;;4190660;28;20118;-57
2023/03/23 09:08:55;;;;;;;4.13;4.03;;;;;;;;;;4189210;28;20094;-57
2023/03/23 09:11:15;;;;;;;5.05;4.70;;;;;;;;;;4188986;28;20144;-57
2023/03/23 09:13:36;;;;;;;9.18;3.97;;;;;;;;;;4189640;28;20366;-56
2023/03/23 09:15:57;;;;;;;4.93;4.70;;;;;;;;;;4188611;28;20052;-57
2023/03/23 09:18:18;;;;;;;5.15;4.57;;;;;;;;;;4186616;28;20144;-56
2023/03/23 09:20:37;;;;;;;5.88;4.05;;;;;;;;;;4188788;28;20052;-56
2023/03/23 09:22:58;;;;;;;4.05;3.85;;;;;;;;;;4188812;28;20112;-57
2023/03/23 09:25:20;;;;;;;5.50;4.88;;;;;;;;;;4188931;28;20232;-56
2023/03/23 09:27:41;;;;;;;4.75;4.53;;;;;;;;;;4187222;28;20052;-56
2023/03/23 09:30:00;;;;;;;5.80;5.22;;;;;;;;;;4174405;28;20087;-56
2023/03/23 09:32:22;;;;;;;5.28;5.05;;;;;;;;;;4206891;28;20103;-56
2023/03/23 09:34:42;;;;;;;5.90;5.60;;;;;;;;;;4194160;28;20235;-56
2023/03/23 09:37:04;;;;;;;7.15;6.50;;;;;;;;;;4188482;28;20044;-56
2023/03/23 09:39:23;;;;;;;9.40;6.13;;;;;;;;;;4189221;28;20263;-56
2023/03/23 09:41:44;;;;;;;5.75;5.45;;;;;;;;;;4189424;28;20088;-56
2023/03/23 09:44:11;;;;;;;9.40;6.53;;;;;;;;;;4188165;28;20083;-56
2023/03/23 09:46:31;;;;;;;6.32;5.82;;;;;;;;;;4187374;28;20072;-56
2023/03/23 09:48:56;;;;;;;5.50;5.00;;;;;;;;;;4189540;28;20040;-56
2023/03/23 09:51:34;;;;;;;6.03;5.72;;;;;;;;;;4189483;28;20052;-56
2023/03/23 09:53:56;;;;;;;5.90;5.63;;;;;;;;;;4188597;28;20044;-56
2023/03/23 09:56:17;;;;;;;5.35;4.95;;;;;;;;;;4189388;28;20052;-56
2023/03/23 09:58:43;;;;;;;6.65;6.13;;;;;;;;;;4188194;28;20047;-56
2023/03/23 10:01:10;;;;;;;6.60;5.18;;;;;;;;;;4189032;28;20243;-56
2023/03/23 10:03:41;;;;;;;5.78;5.47;;;;;;;;;;4188179;28;20071;-56
2023/03/23 10:06:01;;;;;;;5.72;4.65;;;;;;;;;;4187974;28;20114;-56
2023/03/23 10:08:21;;;;;;;5.60;5.15;;;;;;;;;;4189258;28;20406;-56
2023/03/23 10:11:00;;;;;;;5.78;5.28;;;;;;;;;;4189267;28;20959;-56
2023/03/23 10:13:49;;;;;;;7.00;6.75;;;;;;;;;;4189136;28;20287;-56
2023/03/23 10:16:12;;;;;;;5.38;5.10;;;;;;;;;;4172182;28;20087;-56
2023/03/23 10:18:41;;;;;;;8.73;6.38;;;;;;;;;;4189128;28;20048;-56
2023/03/23 10:21:01;;;;;;;6.40;5.57;;;;;;;;;;4189051;28;20075;-56
2023/03/23 10:23:21;;;;;;;7.13;6.32;;;;;;;;;;4178241;28;20044;-56
2023/03/23 10:25:43;;;;;;;6.05;5.55;;;;;;;;;;4189115;28;20040;-56
2023/03/23 10:28:05;;;;;;;3.88;3.78;;;;;;;;;;4187999;28;20052;-56
2023/03/23 10:30:30;;;;;;;4.75;4.60;;;;;;;;;;4187975;28;20044;-56
2023/03/23 10:33:13;;;;;;;5.85;5.65;;;;;;;;;;4187846;28;20106;-56
2023/03/23 10:35:36;;;;;;;5.47;4.93;;;;;;;;;;4168701;28;20048;-56
2023/03/23 10:38:00;;;;;;;5.63;4.35;;;;;;;;;;4187328;28;20430;-57
2023/03/23 10:40:26;;;;;;;4.53;4.38;;;;;;;;;;4188891;28;20094;-56
2023/03/23 10:42:47;;;;;;;5.88;5.57;;;;;;;;;;4187614;28;20267;-57
2023/03/23 10:45:34;;;;;;;4.70;4.50;;;;;;;;;;4188933;28;20134;-56
2023/03/23 10:47:57;;;;;;;6.00;5.70;;;;;;;;;;4187061;28;20056;-56
2023/03/23 10:50:23;;;;;;;5.70;5.40;;;;;;;;;;4185574;28;20114;-56
2023/03/23 10:52:44;;;;;;;4.05;3.85;;;;;;;;;;4187834;28;20056;-56
2023/03/23 10:55:11;;;;;;;4.38;3.97;;;;;;;;;;4188317;28;20075;-56
2023/03/23 10:57:33;;;;;;;4.35;4.10;;;;;;;;;;4199276;28;20247;-57
2023/03/23 10:59:58;;;;;;;5.03;4.72;;;;;;;;;;4188140;28;20454;-56
2023/03/23 11:02:19;;;;;;;5.63;5.35;;;;;;;;;;4181738;28;20044;-56
2023/03/23 11:04:39;;;;;;;5.82;5.35;;;;;;;;;;4193477;28;20078;-56
2023/03/23 11:07:01;;;;;;;4.32;4.13;;;;;;;;;;4193115;28;20063;-56
2023/03/23 11:09:22;;;;;;;5.07;3.95;;;;;;;;;;4186747;28;20164;-56
2023/03/23 11:11:43;;;;;;;4.53;4.32;;;;;;;;;;4187691;28;20052;-56
2023/03/23 11:14:13;;;;;;;5.82;5.63;;;;;;;;;;4185774;28;20059;-56
2023/03/23 11:16:35;;;;;;;6.35;5.88;;;;;;;;;;4185612;28;20048;-56
2023/03/23 11:18:55;;;;;;;4.45;4.25;;;;;;;;;;4187987;28;20071;-56
2023/03/23 11:21:16;;;;;;;4.50;4.22;;;;;;;;;;4191308;28;20059;-57
2023/03/23 11:23:39;;;;;;;5.13;4.85;;;;;;;;;;4191250;28;20567;-56
2023/03/23 11:26:11;;;;;;;6.50;6.10;;;;;;;;;;4190156;28;20068;-56
2023/03/23 11:28:36;;;;;;;3.83;3.72;;;;;;;;;;4190009;28;20271;-56
2023/03/23 11:30:57;;;;;;;5.90;5.50;;;;;;;;;;4190754;28;20080;-56
2023/03/23 11:33:19;;;;;;;5.50;5.00;;;;;;;;;;4190505;28;20048;-56
2023/03/23 11:35:39;;;;;;;5.78;5.47;;;;;;;;;;4189696;28;20084;-56
2023/03/23 11:37:59;;;;;;;12.15;11.05;;;;;;;;;;4190239;28;20052;-56
2023/03/23 11:40:21;;;;;;;8.40;7.70;;;;;;;;;;4191009;28;20047;-56
2023/03/23 11:42:48;;;;;;;6.05;5.75;;;;;;;;;;4191030;28;20171;-57
2023/03/23 11:45:28;;;;;;;6.88;6.35;;;;;;;;;;4177616;28;20136;-56
2023/03/23 11:48:02;;;;;;;6.30;5.88;;;;;;;;;;4187225;28;20087;-56
2023/03/23 11:50:27;;;;;;;9.15;8.48;;;;;;;;;;4189991;28;20119;-56
2023/03/23 11:52:50;;;;;;;6.35;6.03;;;;;;;;;;4190285;28;20110;-56
2023/03/23 11:55:14;;;;;;;7.25;5.95;;;;;;;;;;4190448;28;20256;-56
2023/03/23 11:57:34;;;;;;;14.23;13.02;;;;;;;;;;4190931;28;20074;-56
2023/03/23 11:59:54;;;;;;;8.13;6.03;;;;;;;;;;4189836;28;20051;-56
2023/03/23 12:02:17;;;;;;;3.33;3.10;;;;;;;;;;4191421;28;20090;-56
2023/03/23 12:04:53;;;;;;;3.05;2.75;;;;;;;;;;4191482;28;20048;-56
2023/03/23 12:07:16;;;;;;;2.78;2.67;;;;;;;;;;4195135;28;20240;-56
2023/03/23 12:09:39;;;;;;;3.20;2.30;;;;;;;;;;4189895;28;20275;-56
2023/03/23 12:12:13;;;;;;;2.75;2.65;;;;;;;;;;4187852;28;20099;-56
2023/03/23 12:14:57;;;;;;;3.97;1.63;;;;;;;;;;4189031;28;20072;-56
2023/03/23 12:17:17;;;;;;;1.65;1.65;;;;;;;;;;4190603;28;20052;-56
2023/03/23 12:19:38;;;;;;;2.50;2.28;;;;;;;;;;4190192;28;20048;-56
2023/03/23 12:22:13;;;;;;;2.75;1.80;;;;;;;;;;4190472;28;20095;-56
2023/03/23 12:24:33;;;;;;;2.00;1.90;;;;;;;;;;4190127;28;20044;-56
2023/03/23 12:27:11;;;;;;;1.60;1.50;;;;;;;;;;4190514;28;20427;-56
2023/03/23 12:29:31;;;;;;;1.42;1.42;;;;;;;;;;4202279;28;20267;-56
2023/03/23 12:32:08;;;;;;;1.42;1.42;;;;;;;;;;4189536;28;20080;-56
2023/03/23 12:34:31;;;;;;;3.30;2.15;;;;;;;;;;4189447;28;20120;-56
2023/03/23 12:36:50;;;;;;;;;;;;;;;;;;4189764;28;20048;-56
2023/03/23 12:39:29;;;;;;;1.40;1.40;;;;;;;;;;4188227;28;19923;-57
2023/03/23 12:41:57;;;;;;;1.42;1.42;;;;;;;;;;4190356;28;20051;-56
2023/03/23 12:44:20;;;;;;;2.03;1.92;;;;;;;;;;4190327;28;20124;-56
2023/03/23 12:46:50;;;;;;;1.10;1.08;;;;;;;;;;4190213;28;20127;-57
2023/03/23 12:49:11;;;;;;;1.52;1.40;;;;;;;;;;4188532;28;20103;-56
2023/03/23 12:51:37;;;;;;;1.20;1.20;;;;;;;;;;4188820;28;20114;-56
2023/03/23 12:54:02;;;;;;;1.20;1.20;;;;;;;;;;4182831;28;20104;-57
2023/03/23 12:56:25;;;;;;;1.15;1.10;;;;;;;;;;4189673;28;20275;-57
2023/03/23 12:58:59;;;;;;;1.00;1.00;;;;;;;;;;4189843;28;20060;-56
2023/03/23 13:01:23;;;;;;;1.30;1.30;;;;;;;;;;4194828;28;20044;-56
2023/03/23 13:03:56;;;;;;;1.58;1.10;;;;;;;;;;4195059;28;20386;-56
2023/03/23 13:06:19;;;;;;;1.58;1.58;;;;;;;;;;4193637;28;20039;-56
2023/03/23 13:08:42;;;;;;;1.38;1.38;;;;;;;;;;4174752;28;20040;-56
2023/03/23 13:11:04;;;;;;;1.10;1.10;;;;;;;;;;4189782;28;20056;-57
2023/03/23 13:13:26;;;;;;;1.13;1.00;;;;;;;;;;4189172;28;20108;-56
2023/03/23 13:16:07;;;;;;;1.50;1.00;;;;;;;;;;4189216;28;20374;-57
2023/03/23 13:18:39;;;;;;;1.15;1.15;;;;;;;;;;4188657;28;20382;-57
2023/03/23 13:21:04;;;;;;;2.00;1.33;;;;;;;;;;4189258;28;20098;-57
2023/03/23 13:23:30;;;;;;;1.30;1.30;;;;;;;;;;4186806;28;20044;-57
2023/03/23 13:26:03;;;;;;;1.00;1.00;;;;;;;;;;4179092;28;20047;-57
2023/03/23 13:28:25;;;;;;;1.20;1.10;;;;;;;;;;4188682;28;20397;-56
2023/03/23 13:30:54;;;;;;;1.55;1.02;;;;;;;;;;4188647;28;20055;-56
2023/03/23 13:33:15;;;;;;;1.00;1.00;;;;;;;;;;4189064;28;20378;-57
2023/03/23 13:35:39;;;;;;;1.20;1.10;;;;;;;;;;4187980;28;20052;-58
2023/03/23 13:37:59;;;;;;;1.30;1.30;;;;;;;;;;4189643;28;20082;-58
2023/03/23 13:40:27;;;;;;;2.30;1.00;;;;;;;;;;4189494;28;20047;-58
2023/03/23 13:42:51;;;;;;;1.00;1.00;;;;;;;;;;4189417;28;20083;-58
2023/03/23 13:45:21;;;;;;;1.10;1.10;;;;;;;;;;4188939;28;20072;-58
2023/03/23 13:47:44;;;;;;;1.73;1.10;;;;;;;;;;4189079;28;20055;-58
2023/03/23 13:50:10;;;;;;;1.10;1.10;;;;;;;;;;4189352;28;20044;-58
2023/03/23 13:52:45;;;;;;;1.88;0.93;;;;;;;;;;4189493;28;20108;-58
2023/03/23 13:55:17;;;;;;;0.90;0.90;;;;;;;;;;4187651;28;20048;-58
2023/03/23 13:57:48;;;;;;;1.58;1.00;;;;;;;;;;4186222;28;20108;-58
2023/03/23 14:00:25;;;;;;;1.08;1.08;;;;;;;;;;4189168;28;20047;-58
2023/03/23 14:02:45;;;;;;;0.90;0.90;;;;;;;;;;4187431;28;20047;-58
2023/03/23 14:05:10;;;;;;;1.17;1.17;;;;;;;;;;4192902;28;20256;-58